createdAt,value
2019-03-13T00:01:41.116Z,1.53
2019-03-13T00:04:12.174Z,1.23
2019-03-13T00:06:42.991Z,1.20
2019-03-13T00:09:13.968Z,1.00
2019-03-13T00:11:44.998Z,1.13
2019-03-13T00:14:16.090Z,1.10
2019-03-13T00:16:52.078Z,1.27
2019-03-13T00:19:22.876Z,0.90
2019-03-13T00:21:53.660Z,1.17
2019-03-13T00:24:38.544Z,0.77
2019-03-13T00:27:09.261Z,1.30
2019-03-13T00:29:40.030Z,1.63
2019-03-13T00:32:13.358Z,1.37
2019-03-13T00:34:47.010Z,1.57
2019-03-13T00:37:20.920Z,1.33
2019-03-13T00:39:52.105Z,1.33
2019-03-13T00:42:23.059Z,1.23
2019-03-13T00:44:57.910Z,1.30
2019-03-13T00:47:29.707Z,1.23
2019-03-13T00:50:01.082Z,1.40
2019-03-13T00:52:39.012Z,1.17
2019-03-13T00:55:10.292Z,1.20
2019-03-13T00:57:47.635Z,1.10
2019-03-13T01:00:32.993Z,1.40
2019-03-13T01:03:04.037Z,1.50
2019-03-13T01:05:49.715Z,1.20
2019-03-13T01:08:20.531Z,1.43
2019-03-13T01:10:55.187Z,1.70
2019-03-13T01:13:28.478Z,1.10
2019-03-13T01:16:00.055Z,1.73
2019-03-13T01:18:30.842Z,1.60
2019-03-13T01:21:03.187Z,1.53
2019-03-13T01:23:34.579Z,1.53
2019-03-13T01:26:05.586Z,1.27
2019-03-13T01:28:39.361Z,1.47
2019-03-13T01:31:34.916Z,1.80
2019-03-13T01:34:23.809Z,1.30
2019-03-13T01:36:55.824Z,1.60
2019-03-13T01:39:26.579Z,1.37
2019-03-13T01:41:57.379Z,2.10
2019-03-13T01:44:35.642Z,1.43
2019-03-13T01:47:09.082Z,1.80
2019-03-13T01:49:39.904Z,1.60
2019-03-13T01:52:10.592Z,1.50
2019-03-13T01:54:41.598Z,1.30
2019-03-13T01:57:12.371Z,1.40
2019-03-13T01:59:53.048Z,1.47
2019-03-13T02:02:23.777Z,1.70
2019-03-13T02:04:54.665Z,2.10
2019-03-13T02:07:25.546Z,1.97
2019-03-13T02:09:56.373Z,2.30
2019-03-13T04:36:09.862Z,0.60
2019-03-13T04:38:41.431Z,0.70
2019-03-13T04:41:12.657Z,0.90
2019-03-13T04:43:43.726Z,0.73
2019-03-13T04:46:21.858Z,0.80
2019-03-13T04:48:53.038Z,0.93
2019-03-13T04:51:24.053Z,0.87
2019-03-13T04:53:55.216Z,1.00
2019-03-13T04:56:26.803Z,1.00
2019-03-13T04:58:58.399Z,1.00
2019-03-13T05:01:29.390Z,1.10
2019-03-13T05:04:00.907Z,1.10
2019-03-13T05:06:32.054Z,1.07
2019-03-13T05:09:08.600Z,1.20
2019-03-13T05:11:39.841Z,1.50
2019-03-13T05:14:10.871Z,1.67
2019-03-13T05:16:42.395Z,1.70
2019-03-13T05:19:15.127Z,1.50
2019-03-13T05:21:46.141Z,1.30
2019-03-13T05:24:20.587Z,1.87
2019-03-13T05:26:52.711Z,1.63
2019-03-13T05:29:23.854Z,1.60
2019-03-13T05:31:56.174Z,2.23
2019-03-13T05:34:28.818Z,2.07
2019-03-13T05:36:59.894Z,2.00
2019-03-13T05:39:32.608Z,1.93
2019-03-13T05:42:03.632Z,2.23
2019-03-13T05:44:38.010Z,1.60
2019-03-13T05:47:09.116Z,1.93
2019-03-13T05:49:40.270Z,1.67
2019-03-13T05:52:11.786Z,1.60
2019-03-13T05:54:42.913Z,2.00
2019-03-13T05:57:14.127Z,1.60
2019-03-13T05:59:45.659Z,1.43
2019-03-13T06:02:17.208Z,1.57
2019-03-13T06:04:48.456Z,1.70
2019-03-13T06:07:20.042Z,2.50
2019-03-13T06:09:54.198Z,2.07
2019-03-13T06:12:25.192Z,2.13
2019-03-13T06:14:56.761Z,1.57
2019-03-13T06:17:30.147Z,1.67
2019-03-13T06:20:03.994Z,1.60
2019-03-13T06:22:35.733Z,1.70
2019-03-13T06:25:07.453Z,1.50
2019-03-13T06:27:40.659Z,1.23
2019-03-13T06:30:13.941Z,1.10
2019-03-13T06:32:44.903Z,0.90
2019-03-13T06:35:16.699Z,1.57
2019-03-13T06:37:47.686Z,1.40
2019-03-13T06:40:19.036Z,1.27
2019-03-13T06:42:50.795Z,1.30
2019-03-13T06:45:23.310Z,1.00
2019-03-13T06:48:01.690Z,1.63
2019-03-13T06:50:33.264Z,1.30
2019-03-13T06:53:04.397Z,1.23
2019-03-13T06:55:37.260Z,0.87
2019-03-13T06:58:11.081Z,0.80
2019-03-13T07:01:07.898Z,1.10
2019-03-13T07:04:08.645Z,1.13
2019-03-13T07:06:58.377Z,1.30
2019-03-13T07:09:55.679Z,1.17
2019-03-13T07:12:57.873Z,1.20
2019-03-13T07:15:46.002Z,1.27
2019-03-13T07:18:24.025Z,1.20
2019-03-13T07:21:14.962Z,1.40
2019-03-13T07:24:20.668Z,0.67
2019-03-13T07:27:03.425Z,0.90
2019-03-13T07:29:55.181Z,1.13
2019-03-13T07:32:46.344Z,1.30
2019-03-13T07:35:48.567Z,0.80
2019-03-13T07:38:28.829Z,1.00
2019-03-13T07:41:24.775Z,1.33
2019-03-13T07:44:18.573Z,1.07
2019-03-13T07:47:29.182Z,0.87
2019-03-13T07:50:22.339Z,1.13
2019-03-13T07:53:28.089Z,0.70
2019-03-13T07:56:09.314Z,1.00
2019-03-13T07:59:02.318Z,1.40
2019-03-13T08:02:07.441Z,0.87
2019-03-13T08:04:57.856Z,1.10
2019-03-13T08:07:53.902Z,1.40
2019-03-13T08:10:46.921Z,1.10
2019-03-13T08:13:39.976Z,1.13
2019-03-13T08:16:21.355Z,0.90
2019-03-13T08:19:17.090Z,1.50
2019-03-13T08:22:23.404Z,1.40
2019-03-13T08:25:35.620Z,1.30
2019-03-13T08:28:32.096Z,1.10
2019-03-13T08:31:12.470Z,0.90
2019-03-13T08:34:00.140Z,1.17
2019-03-13T08:36:48.496Z,1.40
2019-03-13T08:39:50.503Z,1.30
2019-03-13T08:42:40.348Z,1.00
2019-03-13T08:45:44.038Z,1.00
2019-03-13T08:48:37.807Z,1.10
2019-03-13T08:51:40.515Z,1.33
2019-03-13T08:54:33.671Z,1.33
2019-03-13T08:57:26.776Z,1.50
2019-03-13T09:00:28.784Z,1.10
2019-03-13T09:03:31.426Z,1.20
2019-03-13T09:06:20.077Z,0.90
2019-03-13T09:09:16.518Z,1.50
2019-03-13T09:11:58.615Z,1.67
2019-03-13T09:14:57.076Z,1.20
2019-03-13T09:17:45.144Z,1.70
2019-03-13T09:20:34.865Z,1.57
2019-03-13T09:23:24.092Z,1.67
2019-03-13T09:26:13.773Z,1.80
2019-03-13T09:29:01.830Z,1.83
2019-03-13T09:31:59.096Z,1.30
2019-03-13T09:34:47.929Z,1.83
2019-03-13T09:37:42.138Z,1.77
2019-03-13T09:40:50.119Z,1.17
2019-03-13T09:43:28.089Z,1.60
2019-03-13T09:46:22.584Z,1.60
2019-03-13T09:49:04.130Z,1.13
2019-03-13T09:51:59.832Z,1.43
2019-03-13T09:54:50.989Z,0.97
2019-03-13T09:57:47.711Z,1.33
2019-03-13T10:00:40.739Z,1.40
2019-03-13T10:03:27.098Z,1.40
2019-03-13T10:06:18.570Z,1.40
2019-03-13T10:09:15.931Z,1.60
2019-03-13T10:12:16.722Z,1.80
2019-03-13T10:15:09.526Z,1.40
2019-03-13T10:18:14.905Z,1.43
2019-03-13T10:20:56.998Z,1.33
2019-03-13T10:23:51.410Z,1.80
2019-03-13T10:26:44.406Z,1.50
2019-03-13T10:29:34.039Z,1.60
2019-03-13T10:32:26.795Z,1.60
2019-03-13T10:35:14.283Z,1.40
2019-03-13T10:37:57.399Z,1.70
2019-03-13T10:40:48.967Z,1.70
2019-03-13T10:43:40.175Z,1.30
2019-03-13T10:46:33.404Z,1.57
2019-03-13T10:49:41.468Z,2.00
2019-03-13T10:52:41.421Z,1.20
2019-03-13T10:55:39.148Z,1.23
2019-03-13T10:58:23.032Z,1.67
2019-03-13T11:01:16.116Z,1.30
2019-03-13T11:04:04.184Z,1.40
2019-03-13T11:07:00.260Z,1.20
2019-03-13T11:09:59.570Z,1.90
2019-03-13T11:13:04.416Z,1.90
2019-03-13T11:15:54.788Z,1.03
2019-03-13T11:18:46.873Z,1.50
2019-03-13T11:21:45.123Z,1.50
2019-03-13T11:24:35.015Z,1.70
2019-03-13T11:27:25.899Z,1.70
2019-03-13T11:30:12.089Z,1.20
2019-03-13T11:33:06.720Z,1.50
2019-03-13T11:39:53.669Z,1.60
2019-03-13T11:42:42.456Z,1.57
2019-03-13T11:45:31.414Z,1.60
2019-03-13T11:48:20.122Z,1.57
2019-03-13T11:51:08.884Z,1.50
2019-03-13T11:53:58.963Z,1.70
2019-03-13T11:56:57.256Z,1.53
2019-03-13T12:00:04.843Z,1.30
2019-03-13T12:02:58.022Z,1.13
2019-03-13T12:06:06.356Z,1.80
2019-03-13T12:09:03.885Z,1.57
2019-03-13T12:11:58.683Z,1.40
2019-03-13T12:15:04.334Z,1.70
2019-03-13T12:18:10.958Z,1.50
2019-03-13T12:20:59.792Z,1.47
2019-03-13T12:23:48.680Z,1.50
2019-03-13T12:26:35.644Z,1.40
2019-03-13T12:29:31.996Z,0.80
2019-03-13T12:32:14.026Z,0.60
2019-03-13T12:34:54.314Z,0.67
2019-03-13T12:37:58.100Z,1.20
2019-03-13T12:40:46.246Z,1.17
2019-03-13T12:43:34.889Z,1.13
2019-03-13T12:46:24.111Z,1.07
2019-03-13T12:49:26.678Z,0.90
2019-03-13T12:52:30.309Z,1.23
2019-03-13T12:55:38.712Z,1.13
2019-03-13T12:58:27.566Z,1.43
2019-03-13T13:01:30.973Z,1.30
2019-03-13T13:04:25.785Z,1.60
2019-03-13T13:07:52.086Z,1.43
2019-03-13T13:11:17.724Z,1.43
2019-03-13T13:14:16.503Z,2.20
2019-03-13T13:17:13.875Z,1.33
2019-03-13T13:19:53.063Z,1.07
2019-03-13T13:22:36.913Z,1.13
2019-03-13T13:25:24.201Z,0.90
2019-03-13T13:28:10.257Z,1.30
2019-03-13T13:31:21.500Z,1.20
2019-03-13T13:33:53.558Z,1.23
2019-03-13T13:36:44.663Z,1.53
2019-03-13T13:39:35.581Z,1.50
2019-03-13T13:42:09.512Z,0.90
2019-03-13T13:44:50.358Z,0.90
2019-03-13T13:47:21.841Z,1.13
2019-03-13T13:49:59.678Z,1.00
2019-03-13T13:52:27.571Z,1.10
2019-03-13T13:54:58.676Z,1.37
2019-03-13T13:57:34.203Z,0.90
2019-03-13T14:00:08.122Z,1.17
2019-03-13T14:02:39.644Z,0.83
2019-03-13T14:05:10.641Z,1.73
2019-03-13T14:07:44.561Z,1.27
2019-03-13T14:10:16.027Z,1.27
2019-03-13T14:12:47.097Z,1.20
2019-03-13T14:15:25.091Z,1.53
2019-03-13T14:18:09.836Z,1.10
2019-03-13T14:20:41.557Z,1.00
2019-03-13T14:23:20.995Z,1.60
2019-03-13T14:25:51.855Z,1.30
2019-03-13T14:28:25.855Z,1.10
2019-03-13T14:31:00.694Z,1.30
2019-03-13T14:33:36.263Z,1.13
2019-03-13T14:36:07.891Z,1.57
2019-03-13T14:38:39.132Z,1.50
2019-03-13T14:41:12.086Z,1.70
2019-03-13T14:43:48.613Z,1.30
2019-03-13T14:46:22.487Z,1.30
2019-03-13T14:48:58.470Z,1.57
2019-03-13T14:51:29.419Z,1.63
2019-03-13T14:54:01.652Z,1.30
2019-03-13T14:56:35.216Z,1.80
2019-03-13T14:59:07.074Z,1.17
2019-03-13T15:01:46.926Z,1.50
2019-03-13T15:04:19.098Z,1.60
2019-03-13T15:06:50.447Z,1.40
2019-03-13T15:09:21.508Z,1.23
2019-03-13T15:11:52.879Z,1.07
2019-03-13T15:14:24.438Z,1.70
2019-03-13T15:17:00.497Z,1.97
2019-03-13T15:19:32.889Z,1.20
2019-03-13T15:22:04.321Z,1.23
2019-03-13T15:24:35.905Z,1.27
2019-03-13T15:27:07.561Z,1.30
2019-03-13T15:29:43.715Z,1.10
2019-03-13T15:32:17.086Z,1.07
2019-03-13T15:34:49.892Z,1.47
2019-03-13T15:37:20.792Z,1.83
2019-03-13T15:39:52.098Z,1.43
2019-03-13T15:42:26.228Z,1.67
2019-03-13T15:44:58.107Z,1.53
2019-03-13T15:47:28.967Z,1.70
2019-03-13T15:50:01.916Z,1.40
2019-03-13T15:52:36.351Z,1.23
2019-03-13T15:55:10.063Z,1.40
2019-03-13T15:57:43.383Z,1.87
2019-03-13T16:00:19.613Z,1.30
2019-03-13T16:02:50.882Z,1.27
2019-03-13T16:05:23.980Z,1.40
2019-03-13T16:07:55.104Z,1.37
2019-03-13T16:10:29.875Z,1.60
2019-03-13T16:13:05.920Z,1.00
2019-03-13T16:15:48.212Z,1.67
2019-03-13T16:18:23.896Z,0.97
2019-03-13T16:23:57.738Z,1.37
2019-03-13T16:26:34.944Z,1.60
2019-03-13T16:29:13.489Z,1.37
2019-03-13T16:31:50.378Z,1.50
2019-03-13T16:34:22.103Z,1.40
2019-03-13T16:36:55.557Z,1.17
2019-03-13T16:39:28.897Z,1.27
2019-03-13T16:42:05.079Z,1.40
2019-03-13T16:44:36.543Z,1.37
2019-03-13T16:47:07.537Z,1.43
2019-03-13T16:49:41.394Z,1.53
2019-03-13T16:52:15.720Z,1.20
2019-03-13T16:54:52.272Z,1.37
2019-03-13T16:57:23.673Z,2.40
2019-03-13T17:00:00.411Z,2.00
2019-03-13T17:02:27.068Z,1.67
2019-03-13T17:04:59.101Z,1.47
2019-03-13T17:07:36.179Z,1.20
2019-03-13T17:10:07.558Z,1.97
2019-03-13T17:12:40.299Z,1.60
2019-03-13T17:15:17.082Z,1.40
2019-03-13T17:17:51.533Z,1.80
2019-03-13T17:20:26.305Z,1.17
2019-03-13T17:23:00.634Z,1.73
2019-03-13T17:25:32.376Z,1.50
2019-03-13T17:28:07.017Z,1.87
2019-03-13T17:30:38.500Z,1.83
2019-03-13T17:33:09.499Z,1.97
2019-03-13T17:35:42.115Z,1.60
2019-03-13T17:38:13.153Z,1.87
2019-03-13T17:40:46.308Z,1.47
2019-03-13T17:43:20.418Z,1.40
2019-03-13T17:45:54.627Z,1.53
2019-03-13T17:48:34.537Z,1.90
2019-03-13T17:51:17.187Z,1.57
2019-03-13T17:53:52.203Z,1.57
2019-03-13T17:56:43.097Z,1.30
2019-03-13T17:59:27.620Z,1.60
2019-03-13T18:02:04.734Z,1.20
2019-03-13T18:04:47.218Z,1.07
2019-03-13T18:08:37.888Z,1.93
2019-03-13T18:11:58.189Z,1.40
2019-03-13T18:14:57.007Z,1.37
2019-03-13T18:17:35.745Z,1.53
2019-03-13T18:20:13.387Z,1.30
2019-03-13T18:22:55.006Z,1.60
2019-03-13T18:25:32.414Z,1.10
2019-03-13T18:28:04.112Z,1.63
2019-03-13T18:30:35.664Z,1.50
2019-03-13T18:33:08.223Z,1.60
2019-03-13T18:35:44.791Z,1.50
2019-03-13T18:38:17.636Z,1.70
2019-03-13T18:40:50.585Z,1.77
2019-03-13T18:43:23.626Z,1.37
2019-03-13T18:45:55.715Z,2.00
2019-03-13T18:48:32.756Z,1.67
2019-03-13T18:51:05.079Z,1.67
2019-03-13T18:53:42.060Z,1.67
2019-03-13T18:56:13.967Z,1.60
2019-03-13T18:58:47.923Z,1.80
2019-03-13T19:01:28.050Z,1.83
2019-03-13T19:04:04.090Z,1.87
2019-03-13T19:06:41.589Z,1.70
2019-03-13T19:09:17.461Z,2.00
2019-03-13T19:11:49.190Z,2.07
2019-03-13T19:14:21.189Z,2.10
2019-03-13T19:16:53.588Z,2.10
2019-03-13T19:19:31.325Z,2.00
2019-03-13T19:22:02.853Z,1.93
2019-03-13T19:25:00.506Z,2.27
2019-03-13T19:27:29.773Z,2.37
2019-03-13T19:30:08.954Z,1.80
2019-03-13T19:32:47.267Z,2.00
2019-03-13T19:35:21.099Z,2.60
2019-03-13T19:37:53.162Z,2.10
2019-03-13T19:40:28.020Z,1.70
2019-03-13T19:43:02.458Z,2.23
2019-03-13T19:45:41.043Z,2.53
2019-03-13T19:48:18.153Z,3.50
2019-03-13T19:50:56.621Z,3.73
2019-03-13T19:53:30.584Z,3.47
2019-03-13T19:56:03.148Z,2.37
2019-03-13T19:58:38.145Z,2.97
2019-03-13T20:01:12.231Z,3.20
2019-03-13T20:03:55.128Z,2.00
2019-03-13T20:06:22.704Z,2.00
2019-03-13T20:09:25.599Z,2.37
2019-03-13T20:12:20.489Z,1.80
2019-03-13T20:14:54.525Z,2.10
2019-03-13T20:17:30.768Z,2.40
2019-03-13T20:20:16.779Z,2.37
2019-03-13T20:22:57.187Z,2.60
2019-03-13T20:25:32.548Z,2.20
2019-03-13T20:28:09.802Z,1.97
2019-03-13T20:30:42.871Z,2.47
2019-03-13T20:33:17.760Z,1.93
2019-03-13T20:35:49.698Z,1.90
2019-03-13T20:38:26.206Z,2.10
2019-03-13T20:41:05.660Z,1.90
2019-03-13T20:43:42.094Z,2.07
2019-03-13T20:46:17.795Z,3.30
2019-03-13T20:48:57.074Z,1.80
2019-03-13T20:51:31.798Z,2.43
2019-03-13T20:54:07.611Z,1.90
2019-03-13T20:56:43.007Z,2.13
2019-03-13T20:59:22.218Z,2.03
2019-03-13T21:02:02.508Z,2.60
2019-03-13T21:04:50.599Z,2.20
2019-03-13T21:07:32.707Z,2.20
2019-03-13T21:10:15.580Z,2.30
2019-03-13T21:12:50.465Z,2.13
2019-03-13T21:15:25.422Z,2.33
2019-03-13T21:17:59.594Z,2.43
2019-03-13T21:20:32.743Z,3.80
2019-03-13T21:23:06.473Z,2.70
2019-03-13T21:25:42.208Z,2.77
2019-03-13T21:28:19.270Z,2.77
2019-03-13T21:30:54.220Z,3.60
2019-03-13T21:33:31.940Z,3.43
2019-03-13T21:36:10.880Z,2.40
2019-03-13T21:38:42.104Z,2.80
2019-03-13T21:41:15.649Z,2.77
2019-03-13T21:43:50.966Z,2.80
2019-03-13T21:46:25.481Z,3.37
2019-03-13T21:49:00.887Z,3.17
2019-03-13T21:51:32.892Z,2.57
2019-03-13T21:54:05.236Z,3.00
2019-03-13T21:56:37.157Z,3.13
2019-03-13T21:59:08.279Z,2.47
2019-03-13T22:01:40.243Z,2.50
2019-03-13T22:04:23.571Z,2.40
2019-03-13T22:06:48.590Z,3.00
2019-03-13T22:09:23.167Z,2.90
2019-03-13T22:11:54.155Z,2.93
2019-03-13T22:14:25.351Z,2.87
2019-03-13T22:16:57.115Z,3.17
2019-03-13T22:19:28.301Z,3.10
2019-03-13T22:22:01.124Z,2.80
2019-03-13T22:26:56.399Z,2.30
2019-03-13T22:29:30.158Z,1.73
2019-03-13T22:32:01.474Z,1.83
2019-03-13T22:34:33.816Z,2.10
2019-03-13T22:37:07.888Z,1.30
2019-03-13T22:39:41.070Z,1.37
2019-03-13T22:42:12.180Z,1.37
2019-03-13T22:44:43.796Z,1.27
2019-03-13T22:47:14.936Z,1.17
2019-03-13T22:49:46.977Z,1.23
2019-03-13T22:52:19.403Z,1.73
2019-03-13T22:54:51.101Z,1.10
2019-03-13T22:57:25.201Z,1.50
2019-03-13T22:59:56.633Z,1.50
2019-03-13T23:02:31.724Z,1.57
2019-03-13T23:05:04.174Z,1.70
2019-03-13T23:07:37.258Z,1.37
2019-03-13T23:10:28.867Z,1.87
2019-03-13T23:13:00.090Z,2.07
2019-03-13T23:15:32.170Z,2.20
2019-03-13T23:18:03.928Z,2.13
2019-03-13T23:20:38.365Z,2.23
2019-03-13T23:23:09.625Z,1.93
2019-03-13T23:25:40.607Z,1.90
2019-03-13T23:28:12.154Z,2.30
2019-03-13T23:30:43.891Z,2.77
2019-03-13T23:33:19.815Z,2.40
2019-03-13T23:36:14.882Z,2.10
2019-03-13T23:38:53.231Z,2.50
2019-03-13T23:41:26.998Z,2.77
2019-03-13T23:43:58.580Z,2.30
2019-03-13T23:46:31.019Z,2.80
2019-03-13T23:49:02.365Z,2.37
2019-03-13T23:51:35.447Z,2.60
2019-03-13T23:54:07.612Z,2.77
2019-03-13T23:56:38.832Z,2.97
2019-03-13T23:59:14.418Z,2.63
